createdAt,value
2019-01-27T00:00:43.000Z,985.055
2019-01-27T00:10:43.000Z,984.792
2019-01-27T00:20:43.000Z,984.7
2019-01-27T00:30:43.000Z,984.459
2019-01-27T00:40:43.000Z,984.205
2019-01-27T00:50:43.000Z,983.985
2019-01-27T01:00:43.000Z,983.849
2019-01-27T01:10:43.000Z,983.675
2019-01-27T01:20:43.000Z,983.451
2019-01-27T01:30:43.000Z,983.351
2019-01-27T01:40:43.000Z,983.236
2019-01-27T01:50:43.000Z,983.071
2019-01-27T02:00:43.000Z,982.818
2019-01-27T02:10:43.000Z,982.542
2019-01-27T02:20:43.000Z,982.404
2019-01-27T02:30:43.000Z,982.096
2019-01-27T02:40:43.000Z,981.852
2019-01-27T02:50:43.000Z,981.592
2019-01-27T03:00:43.000Z,981.33
2019-01-27T03:10:43.000Z,981.108
2019-01-27T03:20:43.000Z,981.09
2019-01-27T03:30:43.000Z,980.789
2019-01-27T03:40:43.000Z,980.727
2019-01-27T03:50:43.000Z,980.509
2019-01-27T04:00:43.000Z,980.413
2019-01-27T04:10:44.000Z,980.275
2019-01-27T04:20:44.000Z,980.07
2019-01-27T04:30:44.000Z,979.796
2019-01-27T04:40:44.000Z,979.654
2019-01-27T04:50:44.000Z,979.453
2019-01-27T05:00:44.000Z,979.302
2019-01-27T05:10:44.000Z,979.257
2019-01-27T05:20:44.000Z,979.073
2019-01-27T05:30:44.000Z,978.884
2019-01-27T05:40:44.000Z,978.714
2019-01-27T05:50:44.000Z,978.508
2019-01-27T06:00:45.000Z,978.408
2019-01-27T06:10:44.000Z,978.34
2019-01-27T06:20:44.000Z,978.268
2019-01-27T06:30:48.000Z,978.135
2019-01-27T06:40:44.000Z,978.06
2019-01-27T06:50:44.000Z,977.919
2019-01-27T07:00:44.000Z,977.879
2019-01-27T07:10:44.000Z,977.736
2019-01-27T07:20:44.000Z,977.7
2019-01-27T07:30:44.000Z,977.643
2019-01-27T07:40:44.000Z,977.631
2019-01-27T07:50:44.000Z,977.516
2019-01-27T08:00:44.000Z,977.417
2019-01-27T08:10:44.000Z,977.31
2019-01-27T08:20:44.000Z,977.34
2019-01-27T08:30:44.000Z,977.272
2019-01-27T08:40:44.000Z,977.237
2019-01-27T08:50:44.000Z,977.127
2019-01-27T09:00:44.000Z,977.026
2019-01-27T09:10:46.000Z,976.978
2019-01-27T09:20:44.000Z,976.992
2019-01-27T09:30:44.000Z,976.938
2019-01-27T09:40:44.000Z,976.898
2019-01-27T09:50:44.000Z,976.933
2019-01-27T10:00:44.000Z,976.813
2019-01-27T10:10:44.000Z,976.817
2019-01-27T10:20:44.000Z,976.787
2019-01-27T10:30:44.000Z,976.806
2019-01-27T10:40:44.000Z,976.657
2019-01-27T10:50:44.000Z,976.548
2019-01-27T11:00:44.000Z,976.467
2019-01-27T11:10:44.000Z,976.37
2019-01-27T11:20:44.000Z,976.305
2019-01-27T11:30:44.000Z,976.236
2019-01-27T11:40:44.000Z,976.127
2019-01-27T11:50:44.000Z,976.053
2019-01-27T12:00:44.000Z,975.933
2019-01-27T12:10:44.000Z,975.905
2019-01-27T12:30:45.000Z,975.687
2019-01-27T12:40:45.000Z,975.66
2019-01-27T12:50:45.000Z,975.656
2019-01-27T13:00:45.000Z,975.584
2019-01-27T13:10:45.000Z,975.597
2019-01-27T13:20:45.000Z,975.52
2019-01-27T13:30:45.000Z,975.482
2019-01-27T13:40:45.000Z,975.532
2019-01-27T13:50:46.000Z,975.563
2019-01-27T14:00:45.000Z,975.551
2019-01-27T14:10:45.000Z,975.476
2019-01-27T14:20:45.000Z,975.544
2019-01-27T14:30:45.000Z,975.494
2019-01-27T14:40:45.000Z,975.548
2019-01-27T14:50:45.000Z,975.601
2019-01-27T15:00:45.000Z,975.649
2019-01-27T15:10:45.000Z,975.752
2019-01-27T15:20:46.000Z,975.841
2019-01-27T15:30:46.000Z,975.922
2019-01-27T15:40:48.000Z,976.03
2019-01-27T15:50:45.000Z,976.256
2019-01-27T16:00:45.000Z,976.563
2019-01-27T16:10:45.000Z,976.803
2019-01-27T16:30:45.000Z,977.194
2019-01-27T16:40:45.000Z,977.459
2019-01-27T16:50:45.000Z,977.629
2019-01-27T17:00:45.000Z,977.825
2019-01-27T17:10:45.000Z,977.914
2019-01-27T17:20:45.000Z,978.158
2019-01-27T17:30:45.000Z,978.264
2019-01-27T17:40:45.000Z,978.384
2019-01-27T17:50:45.000Z,978.573
2019-01-27T18:00:45.000Z,978.535
2019-01-27T18:10:45.000Z,978.697
2019-01-27T18:20:45.000Z,978.826
2019-01-27T18:30:45.000Z,978.981
2019-01-27T18:40:45.000Z,979.142
2019-01-27T18:50:45.000Z,979.311
2019-01-27T19:00:46.000Z,979.386
2019-01-27T19:10:45.000Z,979.509
2019-01-27T19:20:46.000Z,979.624
2019-01-27T19:30:45.000Z,979.685
2019-01-27T19:40:46.000Z,979.734
2019-01-27T19:50:45.000Z,979.78
2019-01-27T20:00:46.000Z,979.859
2019-01-27T20:10:45.000Z,980.023
2019-01-27T20:20:46.000Z,980.131
2019-01-27T20:40:46.000Z,980.09
2019-01-27T20:50:46.000Z,980.08
2019-01-27T21:00:46.000Z,980.074
2019-01-27T21:10:46.000Z,980.067
2019-01-27T21:20:46.000Z,980.05
2019-01-27T21:30:46.000Z,980.131
2019-01-27T21:40:47.000Z,979.974
2019-01-27T21:50:46.000Z,980.021
2019-01-27T22:00:46.000Z,979.928
2019-01-27T22:10:46.000Z,979.816
2019-01-27T22:20:46.000Z,979.747
2019-01-27T22:30:46.000Z,979.795
2019-01-27T22:40:46.000Z,979.752
2019-01-27T22:50:46.000Z,979.771
2019-01-27T23:00:46.000Z,979.657
2019-01-27T23:10:46.000Z,979.65
2019-01-27T23:20:46.000Z,979.583
2019-01-27T23:30:46.000Z,979.659
2019-01-27T23:40:46.000Z,979.65
2019-01-27T23:50:46.000Z,979.629
